Terminal Aerodrome Forecast
Issued by NWS

Home | Current Version | Previous Version | Text Only | Print | Product List | Glossary On
Versions: 1 2 3 4 5 6 7 8 9 10 11 12 13 14 15 16 17 18
000
FTUS45 KFGZ 010500
TAFGCN
TAF
KGCN 010535Z 0106/0206 VRB03KT P6SM BKN150
      TEMPO 0106/0110 4SM BR
     FM011800 28007KT P6SM SCT070
      TEMPO 0120/0124 VRB15G25KT 5SM TSRA BKN060CB
     FM020000 VRB05KT P6SM BKN080 PROB30 0200/0204 -SHRA BKN050=

USA.gov is the U.S. government's official web portal to all federal, state and local government web resources and services.